Time;durP1;ratioP1;P1;durP2;ratioP2;P2;SDS_P1;SDS_P2;PMS_P1;PMS_P2;Temp;Humidity;BMP_temperature;BMP_pressure;BME280_temperature;BME280_humidity;BME280_pressure;Samples;Min_cycle;Max_cycle;Signal;HPM_P1;HPM_P2
2023/01/17 00:01:09;;;;;;;;;4.50;4.50;;;;;5.28;73.49;98325.66;5082168;27;45423;-65
2023/01/17 00:11:58;;;;;;;;;4.00;4.00;;;;;5.27;73.57;98312.56;5088432;27;45474;-66
2023/01/17 00:14:24;;;;;;;;;5.50;4.50;;;;;5.23;73.29;98311.97;5097298;27;45267;-67
2023/01/17 00:16:50;;;;;;;;;5.00;5.00;;;;;5.14;74.26;98299.44;5103083;27;45505;-64
2023/01/17 01:33:46;;;;;;;;;8.50;5.50;;;;;5.11;74.11;98269.81;5080918;27;45716;-64
2023/01/17 01:36:11;;;;;;;;;10.25;6.50;;;;;5.13;74.58;98270.56;5077214;27;45203;-64
2023/01/17 01:38:37;;;;;;;;;5.50;5.00;;;;;5.16;74.81;98279.06;5081161;27;45382;-64
2023/01/17 01:41:03;;;;;;;;;7.00;4.25;;;;;5.17;74.92;98283.41;5122967;27;45503;-64
2023/01/17 01:43:44;;;;;;;;;4.75;4.00;;;;;5.16;74.09;98272.97;5110185;27;45593;-64
2023/01/17 01:46:21;;;;;;;;;7.00;4.00;;;;;5.23;74.60;98275.06;5075131;27;45474;-62
2023/01/17 01:48:55;;;;;;;;;7.25;5.50;;;;;5.22;74.60;98270.75;5093609;27;45424;-65
2023/01/17 01:51:41;;;;;;;;;5.00;5.00;;;;;5.21;74.44;98266.44;5078732;27;45230;-64
2023/01/17 01:54:14;;;;;;;;;7.25;5.50;;;;;5.22;74.02;98265.47;5099327;27;45549;-65
2023/01/17 01:56:40;;;;;;;;;2.50;1.00;;;;;5.18;73.83;98252.63;5077877;27;45224;-65
2023/01/17 01:59:08;;;;;;;;;6.25;4.25;;;;;5.18;73.97;98253.47;5081921;27;45395;-64
2023/01/17 02:01:34;;;;;;;;;5.50;4.25;;;;;5.23;74.38;98248.72;5097804;27;45323;-66
2023/01/17 02:04:01;;;;;;;;;11.25;5.50;;;;;5.20;74.71;98238.38;5094829;27;47109;-66
2023/01/17 02:06:36;;;;;;;;;5.00;4.50;;;;;5.26;75.14;98243.22;5078099;27;45431;-66
2023/01/17 02:09:06;;;;;;;;;3.00;3.00;;;;;5.19;75.02;98214.78;5077425;27;45459;-64
2023/01/17 02:11:35;;;;;;;;;5.00;5.00;;;;;5.28;74.43;98236.03;5083162;27;45709;-65
2023/01/17 02:14:00;;;;;;;;;5.50;1.75;;;;;5.28;75.33;98228.13;5077856;27;45443;-63
2023/01/17 02:16:32;;;;;;;;;2.00;2.00;;;;;5.31;74.53;98227.06;5085249;27;45886;-62
2023/01/17 02:19:15;;;;;;;;;3.50;3.50;;;;;5.31;75.42;98220.00;5081302;27;45913;-62
2023/01/17 02:21:40;;;;;;;;;4.00;4.00;;;;;5.32;75.32;98226.94;5089175;27;45515;-64
2023/01/17 02:24:22;;;;;;;;;3.50;3.50;;;;;5.35;74.80;98219.81;5096493;27;46458;-62
2023/01/17 02:27:15;;;;;;;;;7.00;4.25;;;;;5.33;74.63;98212.81;5095041;27;45293;-60
2023/01/17 02:30:18;;;;;;;;;4.00;4.00;;;;;5.36;74.83;98208.31;5096138;27;45420;-61
2023/01/17 02:32:46;;;;;;;;;7.75;4.25;;;;;5.37;75.08;98202.91;5087669;27;45500;-61
2023/01/17 02:35:28;;;;;;;;;6.00;4.75;;;;;5.34;75.23;98203.16;5077672;27;45489;-61
2023/01/17 02:38:22;;;;;;;;;8.00;4.25;;;;;5.33;75.17;98191.75;5074417;27;45378;-61
2023/01/17 02:40:56;;;;;;;;;4.25;4.25;;;;;5.33;75.39;98191.75;5074822;28;45711;-63
2023/01/17 02:43:23;;;;;;;;;4.75;3.00;;;;;5.32;74.55;98176.88;5085322;27;45297;-61
2023/01/17 02:45:49;;;;;;;;;4.00;4.00;;;;;5.36;75.28;98181.94;5076166;27;45480;-64
2023/01/17 02:48:21;;;;;;;;;5.00;4.00;;;;;5.32;74.73;98174.25;5075879;27;45551;-61
2023/01/17 02:51:25;;;;;;;;;3.50;3.50;;;;;5.37;74.84;98170.44;5075229;28;45280;-61
2023/01/17 02:54:22;;;;;;;;;5.00;2.50;;;;;5.39;74.41;98168.53;5098999;27;45414;-62
2023/01/17 02:57:09;;;;;;;;;7.50;4.50;;;;;5.36;74.47;98148.53;5075634;27;45258;-62
2023/01/17 02:59:51;;;;;;;;;5.00;5.00;;;;;5.35;75.19;98141.56;5075749;27;45278;-65
2023/01/17 03:02:43;;;;;;;;;7.00;5.00;;;;;5.32;75.22;98131.22;5095443;27;45259;-63
2023/01/17 03:05:14;;;;;;;;;11.75;4.75;;;;;5.31;75.52;98129.56;5083524;27;45492;-64
2023/01/17 03:07:43;;;;;;;;;7.50;7.25;;;;;5.34;75.35;98121.44;5084242;27;45882;-64
2023/01/17 03:10:11;;;;;;;;;7.75;7.00;;;;;5.33;75.60;98115.31;5076844;27;45276;-62
2023/01/17 03:12:39;;;;;;;;;8.00;8.00;;;;;5.35;75.43;98117.84;5085124;27;45740;-64
2023/01/17 03:15:12;;;;;;;;;5.00;5.00;;;;;5.33;75.66;98106.56;5094498;27;45413;-67
2023/01/17 03:17:42;;;;;;;;;7.50;7.50;;;;;5.34;75.30;98097.72;5094547;27;45221;-64
2023/01/17 03:20:08;;;;;;;;;8.00;8.00;;;;;5.28;75.42;98101.66;5094909;27;45308;-65
2023/01/17 03:22:34;;;;;;;;;7.75;7.75;;;;;5.25;75.05;98104.50;5108884;27;45388;-64
2023/01/17 03:24:59;;;;;;;;;8.50;8.50;;;;;5.26;76.05;98100.91;5078877;27;45543;-67
2023/01/17 03:27:25;;;;;;;;;8.50;7.00;;;;;5.23;75.40;98106.44;5078715;27;56740;-64
2023/01/17 03:29:50;;;;;;;;;14.50;10.50;;;;;5.18;76.24;98102.44;5075776;27;45268;-64
2023/01/17 03:32:15;;;;;;;;;13.00;13.00;;;;;5.05;76.21;98081.41;5079065;27;45454;-62
2023/01/17 03:34:41;;;;;;;;;12.50;12.00;;;;;5.00;76.15;98083.56;5091031;27;45492;-61
2023/01/17 03:37:06;;;;;;;;;11.25;11.25;;;;;5.06;75.83;98093.63;5083310;27;45474;-62
2023/01/17 03:39:32;;;;;;;;;11.00;11.00;;;;;5.07;76.24;98095.31;5079478;27;45348;-61
2023/01/17 03:41:57;;;;;;;;;16.50;8.25;;;;;5.02;76.68;98086.91;5095628;27;45529;-66
2023/01/17 03:44:22;;;;;;;;;17.25;11.25;;;;;5.01;75.89;98086.06;5098952;27;45590;-64
2023/01/17 03:46:48;;;;;;;;;13.50;12.50;;;;;5.00;76.29;98078.28;5081512;27;45207;-65
2023/01/17 03:49:13;;;;;;;;;9.25;9.25;;;;;4.98;76.19;98074.94;5109755;27;45323;-64
2023/01/17 03:51:39;;;;;;;;;16.00;14.75;;;;;5.02;76.32;98084.28;5083124;27;45546;-65
2023/01/17 03:54:04;;;;;;;;;12.50;11.25;;;;;5.03;75.92;98083.31;5079397;27;45535;-65
2023/01/17 03:56:30;;;;;;;;;13.50;11.25;;;;;4.98;76.20;98075.78;5079289;27;45541;-66
2023/01/17 03:58:57;;;;;;;;;16.50;14.50;;;;;4.93;75.93;98074.41;5093599;27;45483;-64
2023/01/17 04:01:23;;;;;;;;;15.75;11.75;;;;;4.90;76.14;98074.63;5110736;27;45426;-65
2023/01/17 04:03:48;;;;;;;;;13.00;12.25;;;;;4.96;76.23;98076.84;5109357;27;45713;-67
2023/01/17 04:06:14;;;;;;;;;18.00;14.00;;;;;4.94;76.33;98068.19;5079342;27;64798;-64
2023/01/17 04:08:40;;;;;;;;;12.25;12.25;;;;;4.93;76.92;98072.63;5077669;27;45407;-65
2023/01/17 04:11:06;;;;;;;;;9.00;9.00;;;;;4.89;75.78;98059.78;5087114;27;45299;-64
2023/01/17 04:13:31;;;;;;;;;12.00;10.50;;;;;4.76;76.16;98040.56;5120167;27;45310;-64
2023/01/17 04:15:57;;;;;;;;;22.50;14.00;;;;;4.92;76.22;98065.66;5096916;27;45855;-64
2023/01/17 04:18:23;;;;;;;;;17.00;14.00;;;;;4.92;77.07;98059.56;5098788;27;45368;-63
2023/01/17 04:20:50;;;;;;;;;11.75;11.25;;;;;4.92;76.30;98062.19;5089611;27;45515;-61
2023/01/17 04:23:16;;;;;;;;;18.75;14.25;;;;;4.92;76.83;98049.03;5095602;27;46100;-65
2023/01/17 04:25:42;;;;;;;;;17.75;15.00;;;;;4.97;76.44;98047.75;5094033;27;46430;-65
2023/01/17 04:28:09;;;;;;;;;19.00;14.00;;;;;4.94;76.01;98052.38;5099393;27;45492;-63
2023/01/17 04:30:34;;;;;;;;;14.50;14.50;;;;;5.00;76.39;98051.94;5093180;27;45226;-62
2023/01/17 04:32:59;;;;;;;;;13.25;11.00;;;;;4.85;76.21;98039.91;5078581;27;45394;-61
2023/01/17 04:35:25;;;;;;;;;17.25;14.50;;;;;4.92;76.00;98041.13;5095182;27;47214;-62
2023/01/17 04:37:51;;;;;;;;;17.50;13.75;;;;;4.96;76.69;98050.50;5077963;27;45873;-63
2023/01/17 04:40:17;;;;;;;;;10.25;8.00;;;;;4.94;76.33;98047.13;5079810;27;45352;-61
2023/01/17 04:42:46;;;;;;;;;15.50;12.00;;;;;4.94;76.84;98041.84;5091103;27;45498;-61
2023/01/17 04:45:12;;;;;;;;;18.00;13.25;;;;;4.96;75.94;98050.50;5095152;27;45451;-62
2023/01/17 04:47:37;;;;;;;;;14.00;11.75;;;;;4.96;76.58;98037.34;5078441;27;45380;-64
2023/01/17 04:50:03;;;;;;;;;13.50;11.00;;;;;4.97;76.73;98039.00;5091357;27;45486;-62
2023/01/17 04:52:28;;;;;;;;;9.75;9.75;;;;;4.97;76.49;98031.94;5092045;27;45270;-63
2023/01/17 04:54:54;;;;;;;;;12.25;11.75;;;;;4.98;77.08;98027.53;5095372;27;46239;-64
2023/01/17 04:57:19;;;;;;;;;10.00;9.25;;;;;4.97;76.80;98025.84;5078414;28;45284;-65
2023/01/17 04:59:45;;;;;;;;;9.25;9.25;;;;;4.97;76.52;98020.56;5098261;27;45336;-64
2023/01/17 05:02:12;;;;;;;;;14.00;11.25;;;;;4.91;76.91;98003.41;5096582;27;45537;-61
2023/01/17 05:04:37;;;;;;;;;12.25;12.25;;;;;4.99;77.05;98019.50;5082400;27;45493;-64
2023/01/17 05:07:03;;;;;;;;;17.75;11.50;;;;;4.99;76.60;98013.41;5079474;27;45507;-64
2023/01/17 05:09:29;;;;;;;;;12.50;10.50;;;;;4.92;76.13;98005.09;5096158;27;45469;-63
2023/01/17 05:11:54;;;;;;;;;11.25;9.50;;;;;4.91;76.94;98000.78;5098041;27;45455;-64
2023/01/17 05:14:24;;;;;;;;;14.50;12.25;;;;;4.93;76.92;98005.94;5087007;27;46891;-63
2023/01/17 05:16:52;;;;;;;;;11.00;11.00;;;;;4.86;76.55;97994.19;5096873;27;45302;-63
2023/01/17 05:19:17;;;;;;;;;14.75;11.00;;;;;4.82;76.12;97984.81;5079904;27;45397;-63
2023/01/17 05:21:42;;;;;;;;;11.50;10.50;;;;;4.82;77.20;97990.09;5077416;28;45611;-64
2023/01/17 05:24:08;;;;;;;;;14.00;11.75;;;;;4.80;76.92;97992.00;5092113;27;45549;-62
2023/01/17 05:26:33;;;;;;;;;12.75;12.75;;;;;4.77;76.94;97984.34;5077815;27;45622;-61
2023/01/17 05:28:59;;;;;;;;;14.00;10.00;;;;;4.71;77.27;97983.84;5086594;27;45467;-64
2023/01/17 05:31:24;;;;;;;;;15.00;11.75;;;;;4.69;76.50;97975.22;5083601;27;45586;-67
2023/01/17 05:33:50;;;;;;;;;14.00;11.75;;;;;4.57;76.32;97973.50;5089602;27;45902;-64
2023/01/17 05:36:15;;;;;;;;;13.25;9.75;;;;;4.50;76.60;97959.09;5106123;27;45463;-63
2023/01/17 05:38:40;;;;;;;;;14.50;13.50;;;;;4.63;77.50;97985.34;5078152;27;45275;-64
2023/01/17 05:41:06;;;;;;;;;9.50;8.00;;;;;4.61;77.25;97980.19;5080422;27;45560;-63
2023/01/17 05:43:31;;;;;;;;;14.50;10.50;;;;;4.56;76.56;97970.97;5077972;27;45625;-64
2023/01/17 05:45:57;;;;;;;;;23.25;14.75;;;;;4.54;76.93;97971.06;5083720;27;45512;-62
2023/01/17 05:48:22;;;;;;;;;12.50;12.50;;;;;4.58;77.68;97969.91;5096561;27;45380;-62
2023/01/17 05:50:47;;;;;;;;;17.00;15.00;;;;;4.60;77.29;97972.41;5092690;27;45436;-65
2023/01/17 05:53:15;;;;;;;;;16.00;13.00;;;;;4.55;76.79;97961.38;5077295;27;45476;-64
2023/01/17 05:55:41;;;;;;;;;14.75;10.50;;;;;4.54;76.98;97965.78;5081194;27;45485;-63
2023/01/17 05:58:12;;;;;;;;;4.00;4.00;;;;;4.42;76.94;97940.38;5090542;27;45331;-63
2023/01/17 06:00:37;;;;;;;;;12.25;12.25;;;;;4.54;77.13;97968.44;5094291;27;45404;-67
2023/01/17 06:03:03;;;;;;;;;13.50;13.50;;;;;4.57;77.65;97962.97;5086129;27;46136;-64
2023/01/17 06:05:29;;;;;;;;;13.00;13.00;;;;;4.61;76.98;97967.03;5098634;27;45438;-64
2023/01/17 06:07:55;;;;;;;;;12.75;12.00;;;;;4.60;77.26;97954.00;5116344;27;45522;-63
2023/01/17 06:10:24;;;;;;;;;11.00;10.00;;;;;4.67;76.82;97963.09;5094506;27;45665;-62
2023/01/17 06:12:49;;;;;;;;;11.00;9.25;;;;;4.70;77.01;97957.63;5076726;27;45477;-65
2023/01/17 06:15:16;;;;;;;;;11.50;10.50;;;;;4.84;77.35;97956.59;5089078;27;45516;-61
2023/01/17 06:17:42;;;;;;;;;11.25;11.25;;;;;4.88;76.78;97950.97;5086601;27;45479;-64
2023/01/17 06:20:09;;;;;;;;;8.00;8.00;;;;;4.90;76.50;97950.88;5085835;27;45522;-61
2023/01/17 06:22:35;;;;;;;;;9.25;9.00;;;;;4.90;75.67;97935.06;5093244;27;45388;-61
2023/01/17 06:25:00;;;;;;;;;7.75;3.50;;;;;4.99;76.27;97944.91;5083749;27;45201;-65
2023/01/17 06:27:27;;;;;;;;;11.75;8.00;;;;;5.06;76.23;97950.53;5095103;27;45368;-63
2023/01/17 06:29:52;;;;;;;;;16.75;11.00;;;;;5.09;76.46;97956.44;5091745;27;45501;-63
2023/01/17 06:32:19;;;;;;;;;10.75;9.50;;;;;5.15;76.41;97958.59;5096604;27;46010;-65
2023/01/17 06:34:44;;;;;;;;;11.00;8.00;;;;;5.21;76.02;97950.25;5096954;27;45387;-63
2023/01/17 06:37:10;;;;;;;;;13.75;9.75;;;;;5.23;75.50;97956.22;5096672;27;45418;-63
2023/01/17 06:39:35;;;;;;;;;14.50;11.75;;;;;5.31;75.34;97961.75;5093777;27;45610;-67
2023/01/17 06:42:01;;;;;;;;;13.00;13.00;;;;;5.29;75.33;97937.31;5092485;27;49038;-64
2023/01/17 06:44:26;;;;;;;;;23.75;21.50;;;;;5.35;75.08;97940.44;5096226;27;45541;-63
2023/01/17 06:46:52;;;;;;;;;13.50;13.00;;;;;5.44;74.20;97952.91;5083601;27;45372;-65
2023/01/17 06:49:18;;;;;;;;;20.00;14.25;;;;;5.36;74.40;97932.41;5079922;27;46755;-62
2023/01/17 06:51:44;;;;;;;;;14.00;14.00;;;;;5.41;73.43;97950.50;5082894;27;45557;-68
2023/01/17 06:54:10;;;;;;;;;17.25;15.25;;;;;5.40;73.65;97946.19;5096258;27;45423;-68
2023/01/17 06:56:35;;;;;;;;;15.00;12.00;;;;;5.45;74.36;97952.78;5089788;27;45494;-63
2023/01/17 06:59:01;;;;;;;;;45.75;41.50;;;;;5.41;73.77;97934.69;5081608;27;45631;-61
2023/01/17 07:01:27;;;;;;;;;21.75;14.75;;;;;5.50;73.60;97955.91;5091674;27;46152;-59
2023/01/17 07:03:52;;;;;;;;;11.75;11.00;;;;;5.51;73.67;97940.94;5092705;27;45438;-55
2023/01/17 07:06:18;;;;;;;;;21.25;16.75;;;;;5.51;72.69;97947.03;5091087;27;45426;-53
2023/01/17 07:08:43;;;;;;;;;20.75;18.75;;;;;5.54;73.83;97959.13;5075790;27;45928;-61
2023/01/17 07:11:09;;;;;;;;;13.50;13.50;;;;;5.50;73.07;97944.53;5076505;27;46017;-64
2023/01/17 07:13:38;;;;;;;;;21.75;15.75;;;;;5.52;73.21;97950.50;5082524;27;45321;-61
2023/01/17 07:16:06;;;;;;;;;20.50;16.25;;;;;5.45;72.80;97936.97;5091307;27;46037;-60
2023/01/17 07:18:32;;;;;;;;;14.50;14.50;;;;;5.55;73.13;97960.81;5091677;27;45468;-60
2023/01/17 07:20:57;;;;;;;;;11.75;11.75;;;;;5.46;72.85;97945.69;5075789;27;45577;-61
2023/01/17 07:23:24;;;;;;;;;20.25;15.50;;;;;5.45;72.18;97951.94;5098122;27;45469;-60
2023/01/17 07:25:51;;;;;;;;;22.00;18.00;;;;;5.40;72.28;97954.94;5091675;27;45563;-61
2023/01/17 07:28:16;;;;;;;;;30.50;22.50;;;;;5.42;73.04;97952.19;5083501;27;45468;-60
2023/01/17 07:30:41;;;;;;;;;13.75;13.75;;;;;5.42;72.82;97949.53;5114707;27;45429;-61
2023/01/17 07:33:08;;;;;;;;;15.00;14.25;;;;;5.43;72.58;97952.06;5106489;27;45541;-62
2023/01/17 07:35:33;;;;;;;;;25.50;18.50;;;;;5.37;72.35;97938.53;5081808;27;45445;-60
2023/01/17 07:37:58;;;;;;;;;21.25;19.50;;;;;5.31;72.79;97947.72;5097516;27;45271;-62
2023/01/17 07:40:24;;;;;;;;;16.25;15.50;;;;;5.36;72.57;97958.78;5095521;27;46432;-57
2023/01/17 07:42:49;;;;;;;;;22.50;17.00;;;;;5.32;72.73;97958.13;5096090;27;45254;-58
2023/01/17 07:45:16;;;;;;;;;17.00;13.00;;;;;5.29;72.52;97953.13;5085787;27;45797;-58
2023/01/17 07:47:42;;;;;;;;;17.50;14.00;;;;;5.29;73.35;97958.38;5075247;27;45730;-64
2023/01/17 07:50:08;;;;;;;;;22.00;18.00;;;;;5.31;73.27;97961.75;5079624;27;47204;-64
2023/01/17 07:52:34;;;;;;;;;24.00;20.00;;;;;5.26;73.67;97953.34;5078577;27;45624;-64
2023/01/17 07:54:59;;;;;;;;;18.25;18.25;;;;;5.20;72.54;97955.59;5075484;27;45307;-59
2023/01/17 07:57:25;;;;;;;;;34.50;25.50;;;;;5.20;72.73;97958.25;5085530;27;45382;-63
2023/01/17 07:59:51;;;;;;;;;21.75;21.75;;;;;5.10;73.19;97946.75;5075575;27;45419;-62
2023/01/17 08:02:22;;;;;;;;;24.50;20.25;;;;;5.15;72.74;97966.50;5075865;27;45451;-64
2023/01/17 08:04:48;;;;;;;;;25.00;23.00;;;;;5.11;73.11;97954.53;5084177;27;45365;-60
2023/01/17 08:07:14;;;;;;;;;32.75;25.00;;;;;5.07;73.13;97960.13;5076630;27;45226;-58
2023/01/17 08:09:41;;;;;;;;;24.75;19.00;;;;;5.14;73.32;97975.38;5088176;27;45527;-58
2023/01/17 08:12:06;;;;;;;;;37.25;26.25;;;;;5.10;73.21;97968.66;5107518;27;45453;-61
2023/01/17 08:14:32;;;;;;;;;23.75;21.75;;;;;5.08;73.08;97973.22;5090759;27;45752;-59
2023/01/17 08:17:10;;;;;;;;;32.75;26.50;;;;;5.09;73.00;97968.78;5089718;27;45542;-58
2023/01/17 08:19:35;;;;;;;;;27.25;23.00;;;;;4.94;74.03;97952.31;5086597;27;47051;-63
2023/01/17 08:22:01;;;;;;;;;25.00;18.25;;;;;4.99;74.42;97955.44;5094936;27;45299;-55
2023/01/17 08:24:26;;;;;;;;;31.50;23.50;;;;;5.08;73.64;97970.56;5078587;27;45774;-55
2023/01/17 08:26:53;;;;;;;;;22.75;18.75;;;;;5.05;73.53;97962.88;5088440;27;45484;-57
2023/01/17 08:29:19;;;;;;;;;27.75;21.75;;;;;4.90;73.32;97950.88;5099971;27;46603;-56
2023/01/17 08:31:45;;;;;;;;;28.00;20.50;;;;;4.95;73.40;97975.09;5108545;27;46031;-56
2023/01/17 08:34:10;;;;;;;;;27.00;23.00;;;;;4.89;74.48;97980.78;5085374;27;45271;-60
2023/01/17 08:36:36;;;;;;;;;30.25;28.25;;;;;4.90;75.18;97977.19;5088448;27;45492;-54
2023/01/17 08:39:01;;;;;;;;;19.75;18.50;;;;;4.91;74.75;97973.63;5085407;27;46726;-57
2023/01/17 08:41:27;;;;;;;;;21.75;21.75;;;;;4.93;74.05;97976.97;5077975;27;45593;-59
2023/01/17 08:43:52;;;;;;;;;21.75;18.75;;;;;4.91;74.79;97974.44;5090215;27;45529;-58
2023/01/17 08:46:18;;;;;;;;;28.00;22.50;;;;;4.78;75.18;97942.09;5089551;27;45744;-53
2023/01/17 08:48:44;;;;;;;;;27.25;25.25;;;;;4.97;75.00;97970.53;5078624;27;45375;-55
2023/01/17 08:51:10;;;;;;;;;39.50;26.75;;;;;4.98;74.80;97973.06;5093827;27;45358;-57
2023/01/17 08:53:35;;;;;;;;;33.50;21.75;;;;;5.04;75.42;97974.38;5078071;27;45283;-58
2023/01/17 08:56:03;;;;;;;;;29.50;26.50;;;;;5.07;74.78;97971.50;5079854;27;45369;-59
2023/01/17 08:58:30;;;;;;;;;28.75;21.25;;;;;5.00;74.34;97959.75;5102046;27;45447;-56
2023/01/17 09:01:01;;;;;;;;;29.75;22.25;;;;;5.04;74.93;97963.84;5077857;27;45354;-61
2023/01/17 09:03:26;;;;;;;;;27.50;26.50;;;;;5.05;75.29;97965.50;5081081;27;45560;-56
2023/01/17 09:06:06;;;;;;;;;32.25;26.50;;;;;5.09;74.91;97969.63;5097966;27;45692;-57
2023/01/17 09:08:33;;;;;;;;;18.25;14.25;;;;;5.13;74.37;97967.59;5083538;27;46312;-59
2023/01/17 09:11:04;;;;;;;;;26.25;21.50;;;;;5.12;74.81;97961.47;5076601;27;45496;-58
2023/01/17 09:13:29;;;;;;;;;20.50;20.50;;;;;5.07;75.11;97963.59;5078159;27;45513;-61
2023/01/17 09:15:56;;;;;;;;;28.50;18.00;;;;;5.04;74.25;97953.28;5085347;27;45666;-55
2023/01/17 09:18:21;;;;;;;;;29.25;25.25;;;;;5.12;74.75;97964.09;5098502;27;46299;-60
2023/01/17 09:20:47;;;;;;;;;29.50;25.75;;;;;5.11;74.75;97957.16;5097237;27;45433;-57
2023/01/17 09:23:12;;;;;;;;;27.75;24.00;;;;;5.07;75.21;97950.44;5097149;27;45385;-59
2023/01/17 09:25:43;;;;;;;;;30.50;23.25;;;;;5.20;74.96;97969.63;5098176;27;45511;-59
2023/01/17 09:28:09;;;;;;;;;31.50;24.75;;;;;5.30;74.25;97960.06;5096502;27;46395;-59
2023/01/17 09:30:35;;;;;;;;;21.50;20.75;;;;;5.32;74.23;97966.03;5077897;27;45373;-60
2023/01/17 09:33:00;;;;;;;;;29.00;24.00;;;;;5.35;74.39;97957.09;5087599;27;45452;-60
2023/01/17 09:35:26;;;;;;;;;31.25;24.25;;;;;5.48;73.94;97957.00;5105549;27;45716;-54
2023/01/17 09:37:51;;;;;;;;;24.75;16.25;;;;;5.54;74.27;97956.50;5097303;27;45334;-56
2023/01/17 09:40:21;;;;;;;;;21.25;16.00;;;;;5.48;74.01;97957.00;5084578;27;45330;-61
2023/01/17 09:42:52;;;;;;;;;28.00;22.00;;;;;5.46;73.87;97943.06;5078017;27;45308;-58
2023/01/17 09:45:19;;;;;;;;;23.00;21.50;;;;;5.58;73.71;97958.78;5078195;27;45738;-51
2023/01/17 09:47:51;;;;;;;;;22.50;16.50;;;;;5.52;73.01;97958.44;5101324;27;46085;-59
2023/01/17 09:50:46;;;;;;;;;16.50;15.00;;;;;5.60;73.38;97971.88;5108158;27;45427;-54
2023/01/17 09:53:19;;;;;;;;;18.00;18.00;;;;;5.67;72.37;97973.03;5080263;27;45454;-56
2023/01/17 09:56:02;;;;;;;;;21.75;18.25;;;;;5.67;72.76;97980.97;5081442;27;45533;-57
2023/01/17 09:58:33;;;;;;;;;15.25;14.00;;;;;5.72;72.27;97980.59;5077809;27;46269;-55
2023/01/17 10:01:21;;;;;;;;;14.50;13.50;;;;;5.68;73.56;97985.28;5077272;27;45443;-57
2023/01/17 10:04:08;;;;;;;;;19.50;15.50;;;;;5.69;73.63;97986.09;5076259;28;45220;-59
2023/01/17 10:06:55;;;;;;;;;23.50;18.00;;;;;5.78;73.45;97994.16;5077827;27;45646;-56
2023/01/17 10:09:30;;;;;;;;;16.50;16.25;;;;;5.80;72.77;97994.03;5093814;27;45727;-58
2023/01/17 10:12:19;;;;;;;;;22.25;19.75;;;;;5.82;73.91;98003.50;5079529;27;45471;-54
2023/01/17 10:15:05;;;;;;;;;18.25;14.00;;;;;5.84;73.48;98004.22;5081775;27;46121;-62
2023/01/17 10:17:40;;;;;;;;;21.75;19.75;;;;;5.86;73.75;97999.69;5097317;27;45354;-55
2023/01/17 10:20:25;;;;;;;;;18.00;16.00;;;;;5.90;72.67;98005.59;5097402;27;46114;-58
2023/01/17 10:23:12;;;;;;;;;26.00;17.25;;;;;5.94;73.64;98000.91;5097956;27;45271;-58
2023/01/17 10:25:45;;;;;;;;;21.00;17.75;;;;;5.98;72.71;98002.31;5097603;27;45333;-60
2023/01/17 10:28:16;;;;;;;;;17.50;14.50;;;;;5.98;72.97;97997.88;5088057;27;45335;-54
2023/01/17 10:30:49;;;;;;;;;20.50;15.25;;;;;5.95;72.77;97984.09;5088315;27;46951;-63
2023/01/17 10:33:30;;;;;;;;;21.75;15.50;;;;;6.00;72.24;98000.44;5114751;27;45712;-61
2023/01/17 10:35:59;;;;;;;;;16.50;15.75;;;;;6.00;72.71;97996.00;5084895;27;45912;-60
2023/01/17 10:38:31;;;;;;;;;17.75;15.50;;;;;6.01;72.36;97991.56;5076867;27;45462;-61
2023/01/17 10:41:03;;;;;;;;;16.50;12.00;;;;;6.04;72.04;97997.41;5076675;27;45329;-55
2023/01/17 10:43:47;;;;;;;;;13.00;11.00;;;;;6.04;71.78;97986.03;5083145;27;45453;-63
2023/01/17 10:46:27;;;;;;;;;12.75;12.50;;;;;6.04;71.24;97981.59;5076375;27;45374;-53
2023/01/17 10:48:53;;;;;;;;;8.25;8.25;;;;;6.12;71.24;97989.75;5077080;27;45534;-59
2023/01/17 10:51:48;;;;;;;;;15.00;13.00;;;;;6.12;71.30;97988.88;5090433;27;46712;-65
2023/01/17 10:54:38;;;;;;;;;8.50;7.50;;;;;6.17;71.02;97987.56;5075210;27;45293;-67
2023/01/17 10:57:13;;;;;;;;;14.75;13.25;;;;;6.12;71.12;97973.91;5094440;27;45436;-69
2023/01/17 10:59:39;;;;;;;;;22.00;18.00;;;;;6.00;72.13;97971.41;5097010;27;45361;-70
2023/01/17 11:02:26;;;;;;;;;17.00;15.00;;;;;6.13;72.75;97985.31;5097833;27;46128;-66
2023/01/17 11:04:54;;;;;;;;;15.50;15.50;;;;;6.14;72.18;97977.28;5111564;27;45444;-65
2023/01/17 11:07:25;;;;;;;;;19.00;16.75;;;;;6.21;72.01;97964.41;5076847;27;45530;-66
2023/01/17 11:09:55;;;;;;;;;14.75;13.25;;;;;6.33;72.19;97966.06;5081648;27;45267;-62
2023/01/17 11:12:42;;;;;;;;;21.75;18.75;;;;;6.35;71.38;97964.13;5074703;27;46899;-62
2023/01/17 11:15:07;;;;;;;;;22.25;17.00;;;;;6.40;71.50;97958.50;5086171;27;45345;-63
2023/01/17 11:17:36;;;;;;;;;22.50;17.00;;;;;6.35;71.75;97950.94;5096152;27;45359;-65
2023/01/17 11:20:33;;;;;;;;;24.75;20.00;;;;;6.30;71.13;97957.56;5097048;27;45481;-63
2023/01/17 11:23:15;;;;;;;;;20.25;14.50;;;;;6.33;71.88;97959.94;5095725;27;47172;-66
2023/01/17 11:25:47;;;;;;;;;23.00;17.00;;;;;6.24;70.93;97945.69;5082299;27;45333;-68
2023/01/17 11:28:29;;;;;;;;;19.50;16.00;;;;;6.36;71.30;97960.53;5075559;27;45377;-63
2023/01/17 11:31:03;;;;;;;;;17.25;12.50;;;;;6.32;71.49;97953.00;5076038;27;45378;-69
2023/01/17 11:33:46;;;;;;;;;19.75;11.25;;;;;6.31;71.35;97957.44;5076059;27;45362;-69
2023/01/17 11:36:21;;;;;;;;;14.00;11.50;;;;;6.36;71.37;97949.97;5093492;27;45443;-64
2023/01/17 11:39:03;;;;;;;;;20.75;17.25;;;;;6.36;71.61;97960.53;5082717;27;45411;-63
2023/01/17 11:41:37;;;;;;;;;15.50;15.50;;;;;6.35;71.50;97943.03;5092568;27;45357;-67
2023/01/17 11:44:19;;;;;;;;;7.75;6.75;;;;;6.39;71.38;97944.47;5075660;27;45708;-65
2023/01/17 11:46:45;;;;;;;;;22.25;20.50;;;;;6.46;70.56;97947.44;5079864;27;45348;-67
2023/01/17 11:49:22;;;;;;;;;19.75;16.00;;;;;6.47;70.98;97941.19;5075699;27;45348;-71
2023/01/17 11:51:47;;;;;;;;;15.00;14.50;;;;;6.52;70.66;97939.03;5077192;27;45373;-65
2023/01/17 11:54:25;;;;;;;;;15.50;13.00;;;;;6.42;70.15;97930.19;5077688;27;46310;-69
2023/01/17 11:56:59;;;;;;;;;19.75;15.75;;;;;6.48;70.55;97935.78;5099720;27;45496;-63
2023/01/17 11:59:38;;;;;;;;;24.50;15.00;;;;;6.48;70.72;97942.88;5099500;27;45402;-64
2023/01/17 12:02:22;;;;;;;;;17.50;16.75;;;;;6.47;70.50;97934.09;5116012;27;45456;-66
2023/01/17 12:05:06;;;;;;;;;18.00;12.50;;;;;6.48;70.02;97935.78;5099356;27;46747;-70
2023/01/17 12:07:50;;;;;;;;;23.75;19.50;;;;;6.51;70.48;97929.44;5100869;27;45252;-67
2023/01/17 12:10:41;;;;;;;;;18.25;15.75;;;;;6.43;71.18;97918.66;5099838;27;45195;-72
2023/01/17 12:16:34;;;;;;;;;22.75;15.00;;;;;6.44;70.54;97922.97;5081546;27;45867;-67
2023/01/17 12:19:21;;;;;;;;;14.25;13.75;;;;;6.39;70.86;97922.50;5097864;27;45392;-62
2023/01/17 12:22:21;;;;;;;;;16.00;14.00;;;;;6.32;70.52;97919.53;5097726;27;45309;-68
2023/01/17 12:24:57;;;;;;;;;13.00;13.00;;;;;6.33;70.68;97926.47;5061698;27;45470;-68
2023/01/17 12:27:45;;;;;;;;;12.75;12.00;;;;;6.26;69.83;97922.66;5096650;27;45367;-71
2023/01/17 12:30:23;;;;;;;;;12.50;12.50;;;;;6.23;70.28;97922.91;5107616;27;45268;-69
2023/01/17 12:33:10;;;;;;;;;13.00;9.00;;;;;6.19;71.03;97926.75;5080724;27;45487;-71
2023/01/17 12:35:41;;;;;;;;;16.75;12.00;;;;;6.27;70.91;97920.88;5078431;27;45753;-63
2023/01/17 12:38:17;;;;;;;;;17.75;10.50;;;;;6.18;71.14;97915.34;5091450;27;45281;-67
2023/01/17 12:41:10;;;;;;;;;17.50;11.00;;;;;6.20;70.67;97920.50;5097723;27;45365;-69
2023/01/17 12:43:39;;;;;;;;;12.00;11.00;;;;;6.22;71.63;97914.13;5095965;27;45346;-68
2023/01/17 12:46:23;;;;;;;;;18.75;14.50;;;;;6.30;71.74;97908.25;5099880;27;45233;-69
2023/01/17 12:48:57;;;;;;;;;18.50;11.50;;;;;6.24;71.00;97908.72;5104687;27;46746;-68
2023/01/17 12:51:38;;;;;;;;;13.25;11.50;;;;;6.20;71.27;97904.69;5077768;28;45358;-66
2023/01/17 12:54:26;;;;;;;;;11.25;11.25;;;;;6.22;71.37;97915.94;5078566;27;45359;-65
2023/01/17 12:56:57;;;;;;;;;12.00;9.75;;;;;6.30;71.04;97918.81;5086532;27;45551;-66
2023/01/17 12:59:35;;;;;;;;;13.50;11.25;;;;;6.22;70.25;97910.66;5080152;27;46376;-66
2023/01/17 13:02:10;;;;;;;;;18.75;15.50;;;;;6.15;70.77;97920.06;5081836;27;45299;-67
2023/01/17 13:04:45;;;;;;;;;14.50;12.00;;;;;6.11;70.45;97914.16;5078464;27;45368;-67
2023/01/17 13:07:41;;;;;;;;;13.50;11.00;;;;;6.15;70.74;97906.84;5099445;27;45276;-66
2023/01/17 13:10:18;;;;;;;;;8.50;6.50;;;;;6.07;70.04;97914.53;5097768;27;45481;-68
2023/01/17 13:12:46;;;;;;;;;10.50;10.50;;;;;6.00;71.88;97906.28;5077818;27;46370;-72